Time;durP1;ratioP1;P1;durP2;ratioP2;P2;SDS_P1;SDS_P2;PMS_P1;PMS_P2;Temp;Humidity;BMP_temperature;BMP_pressure;BME280_temperature;BME280_humidity;BME280_pressure;Samples;Min_cycle;Max_cycle;Signal;HPM_P1;HPM_P2
2021/04/21 00:00:56;;;;;;;22.05;13.98;;;5.40;99.90;;;;;;4951158;28;20053;-74
2021/04/21 00:03:23;;;;;;;23.33;14.50;;;5.30;99.90;;;;;;5017016;28;20066;-73
2021/04/21 00:05:51;;;;;;;24.25;13.80;;;5.30;99.90;;;;;;5017244;28;20035;-73
2021/04/21 00:08:18;;;;;;;21.38;14.27;;;5.30;99.90;;;;;;4951174;28;20027;-74
2021/04/21 00:10:45;;;;;;;25.92;13.88;;;5.20;99.90;;;;;;4950820;28;20027;-73
2021/04/21 00:13:11;;;;;;;24.70;14.77;;;5.10;99.90;;;;;;4950829;28;20165;-73
2021/04/21 00:15:37;;;;;;;22.80;13.80;;;5.00;99.90;;;;;;4950793;28;20023;-73
2021/04/21 00:18:05;;;;;;;23.30;14.73;;;5.10;99.90;;;;;;5016823;28;20024;-73
2021/04/21 00:20:33;;;;;;;22.40;14.68;;;5.00;99.90;;;;;;4950585;28;20038;-73
2021/04/21 00:23:01;;;;;;;26.63;15.13;;;5.00;99.90;;;;;;4950630;28;20031;-74
2021/04/21 00:25:30;;;;;;;25.08;15.20;;;5.00;99.90;;;;;;5016844;28;20070;-74
2021/04/21 00:27:57;;;;;;;21.08;13.65;;;5.00;99.90;;;;;;4950725;28;20023;-73
2021/04/21 00:30:27;;;;;;;23.05;13.98;;;5.00;99.90;;;;;;4950457;28;20027;-73
2021/04/21 00:32:55;;;;;;;24.75;15.13;;;5.00;99.90;;;;;;4950412;28;20051;-73
2021/04/21 00:35:25;;;;;;;23.35;15.57;;;5.00;99.90;;;;;;5016646;28;20030;-73
2021/04/21 00:38:01;;;;;;;22.77;14.35;;;4.90;99.90;;;;;;4950581;28;20027;-73
2021/04/21 00:40:47;;;;;;;24.10;14.23;;;4.90;99.90;;;;;;5016135;28;20493;-73
2021/04/21 00:43:24;;;;;;;23.38;14.70;;;4.90;99.90;;;;;;4950293;28;20635;-73
2021/04/21 00:45:58;;;;;;;23.20;15.15;;;4.90;99.90;;;;;;4950503;28;20394;-73
2021/04/21 00:48:49;;;;;;;27.52;15.52;;;4.90;99.90;;;;;;5016422;28;20114;-73
2021/04/21 00:51:22;;;;;;;23.60;15.80;;;4.80;99.90;;;;;;4950164;28;20073;-74
2021/04/21 00:53:54;;;;;;;27.63;14.80;;;4.70;99.90;;;;;;5016304;28;20035;-74
2021/04/21 00:56:45;;;;;;;23.45;15.25;;;4.60;99.90;;;;;;4950406;28;20019;-73
2021/04/21 00:59:19;;;;;;;26.80;16.33;;;4.60;99.90;;;;;;4950347;28;20038;-73
2021/04/21 01:01:45;;;;;;;27.20;15.90;;;4.60;99.90;;;;;;5016170;28;20031;-73
2021/04/21 01:04:12;;;;;;;26.50;15.18;;;4.60;99.90;;;;;;4950248;28;20027;-74
2021/04/21 01:06:41;;;;;;;23.55;15.32;;;4.60;99.90;;;;;;4950314;28;20446;-73
2021/04/21 01:09:08;;;;;;;24.75;15.23;;;4.60;99.90;;;;;;5015140;28;20034;-73
2021/04/21 01:11:53;;;;;;;26.50;15.48;;;4.60;99.90;;;;;;4949990;28;20371;-74
2021/04/21 01:14:25;;;;;;;23.92;15.40;;;4.60;99.90;;;;;;5015988;28;20031;-74
2021/04/21 01:17:03;;;;;;;24.42;16.48;;;4.50;99.90;;;;;;4949874;28;20019;-73
2021/04/21 01:19:40;;;;;;;23.92;15.10;;;4.50;99.90;;;;;;5016111;28;20030;-73
2021/04/21 01:22:22;;;;;;;25.83;15.25;;;4.50;99.90;;;;;;4949805;28;20118;-73
2021/04/21 01:25:10;;;;;;;22.77;14.05;;;4.40;99.90;;;;;;4949880;28;20041;-73
2021/04/21 01:27:53;;;;;;;23.38;15.02;;;4.40;99.90;;;;;;4949981;28;20020;-73
2021/04/21 01:30:21;;;;;;;27.92;15.18;;;4.30;99.90;;;;;;4949836;28;20027;-73
2021/04/21 01:32:51;;;;;;;22.25;13.85;;;4.30;99.90;;;;;;5015772;28;20027;-74
2021/04/21 01:35:21;;;;;;;28.88;15.48;;;4.20;99.90;;;;;;4949968;28;20024;-73
2021/04/21 01:37:48;;;;;;;27.92;15.57;;;3.90;99.90;;;;;;4950063;29;20381;-73
2021/04/21 01:40:20;;;;;;;25.33;15.02;;;3.80;99.90;;;;;;5016267;28;20035;-74
2021/04/21 01:42:49;;;;;;;24.48;15.93;;;3.70;99.90;;;;;;4949811;28;20028;-73
2021/04/21 01:45:20;;;;;;;30.33;16.40;;;3.70;99.90;;;;;;4949910;28;20058;-74
2021/04/21 01:47:48;;;;;;;25.15;15.02;;;3.70;99.90;;;;;;4949862;28;20035;-74
2021/04/21 01:50:15;;;;;;;26.88;14.50;;;3.80;99.90;;;;;;5015663;28;20504;-73
2021/04/21 01:52:59;;;;;;;30.95;17.75;;;3.90;99.90;;;;;;4949582;28;20505;-73
2021/04/21 01:55:37;;;;;;;25.63;14.90;;;4.00;99.90;;;;;;5015824;28;20027;-73
2021/04/21 01:58:22;;;;;;;22.92;14.57;;;4.20;99.90;;;;;;4949697;28;20061;-74
2021/04/21 02:00:53;;;;;;;22.73;14.60;;;4.20;99.90;;;;;;4949438;28;20027;-73
2021/04/21 02:03:24;;;;;;;23.00;14.43;;;4.10;99.90;;;;;;4949014;28;20033;-73
2021/04/21 02:05:52;;;;;;;24.25;14.90;;;4.20;99.90;;;;;;4949075;28;20055;-75
2021/04/21 02:08:31;;;;;;;23.23;13.23;;;4.20;99.90;;;;;;4949476;28;20058;-73
2021/04/21 02:11:17;;;;;;;21.73;14.23;;;4.50;99.90;;;;;;4949255;28;20039;-73
2021/04/21 02:14:02;;;;;;;25.05;15.10;;;4.40;99.90;;;;;;5015678;28;20019;-73
2021/04/21 02:16:46;;;;;;;19.95;12.30;;;4.50;99.90;;;;;;4949375;28;20023;-73
2021/04/21 02:19:25;;;;;;;23.55;15.63;;;4.60;99.90;;;;;;4949382;28;20038;-73
2021/04/21 02:22:28;;;;;;;22.80;13.68;;;4.60;99.90;;;;;;4951388;28;20636;-73
2021/04/21 02:25:01;;;;;;;26.38;15.35;;;4.70;99.90;;;;;;4952414;28;20035;-73
2021/04/21 02:27:45;;;;;;;24.92;15.18;;;4.60;99.90;;;;;;4952555;28;20032;-75
2021/04/21 02:30:23;;;;;;;27.20;15.75;;;4.70;99.90;;;;;;4952359;28;20489;-74
2021/04/21 02:32:58;;;;;;;24.60;14.98;;;4.70;99.90;;;;;;4952316;28;20097;-74
2021/04/21 02:35:31;;;;;;;25.23;15.73;;;4.70;99.90;;;;;;4952431;28;20027;-74
2021/04/21 02:38:26;;;;;;;27.08;15.43;;;4.70;99.90;;;;;;4952430;28;20614;-74
2021/04/21 02:41:05;;;;;;;23.20;15.20;;;4.70;99.90;;;;;;4993323;28;20493;-73
2021/04/21 02:44:01;;;;;;;23.65;15.00;;;4.70;99.90;;;;;;5010737;28;20037;-73
2021/04/21 02:47:05;;;;;;;26.23;14.73;;;4.80;99.90;;;;;;5010986;28;20564;-74
2021/04/21 02:49:48;;;;;;;24.05;14.30;;;4.80;99.90;;;;;;4952479;29;20051;-73
2021/04/21 02:52:33;;;;;;;23.38;14.15;;;4.80;99.90;;;;;;4936397;29;20075;-73
2021/04/21 02:54:59;;;;;;;25.67;15.73;;;4.70;99.90;;;;;;4936393;29;20095;-73
2021/04/21 02:57:39;;;;;;;26.50;14.68;;;4.70;99.90;;;;;;4936502;29;20027;-73
2021/04/21 03:00:13;;;;;;;26.88;15.77;;;4.80;99.90;;;;;;4936220;29;20082;-74
2021/04/21 03:02:53;;;;;;;26.17;16.13;;;4.80;99.90;;;;;;4952210;29;20032;-74
2021/04/21 03:05:23;;;;;;;25.87;14.80;;;4.70;99.90;;;;;;4952413;29;20023;-74
2021/04/21 03:08:01;;;;;;;23.83;15.45;;;4.70;99.90;;;;;;4951751;28;20035;-74
2021/04/21 03:10:45;;;;;;;25.65;14.82;;;4.80;99.90;;;;;;4933829;29;20537;-74
2021/04/21 03:13:16;;;;;;;23.15;13.93;;;4.90;99.90;;;;;;4990530;28;20058;-74
2021/04/21 03:15:48;;;;;;;24.15;14.20;;;4.90;99.90;;;;;;4990787;28;20033;-74
2021/04/21 03:18:27;;;;;;;20.90;13.82;;;5.10;99.90;;;;;;4990849;28;20034;-73
2021/04/21 03:21:09;;;;;;;22.10;12.75;;;5.00;99.90;;;;;;5002424;28;20043;-74
2021/04/21 03:23:39;;;;;;;21.63;13.50;;;4.80;99.90;;;;;;5017734;28;20032;-74
2021/04/21 03:26:06;;;;;;;23.33;13.48;;;4.70;99.90;;;;;;4941570;28;20042;-74
2021/04/21 03:28:34;;;;;;;23.05;13.52;;;4.60;99.90;;;;;;4946875;28;20061;-74
2021/04/21 03:31:02;;;;;;;24.25;15.02;;;4.50;99.90;;;;;;4951099;28;20035;-74
2021/04/21 03:33:34;;;;;;;26.38;15.35;;;4.30;99.90;;;;;;4935511;28;20082;-73
2021/04/21 03:36:02;;;;;;;24.17;14.10;;;4.40;99.90;;;;;;4938061;28;20012;-74
2021/04/21 03:38:28;;;;;;;21.13;12.98;;;4.30;99.90;;;;;;5034743;28;20023;-74
2021/04/21 03:40:54;;;;;;;24.00;14.02;;;4.20;99.90;;;;;;4938496;28;20028;-74
2021/04/21 03:43:20;;;;;;;24.33;15.48;;;4.10;99.90;;;;;;5011651;28;20028;-74
2021/04/21 03:45:49;;;;;;;27.48;17.23;;;4.00;99.90;;;;;;5008073;28;20023;-74
2021/04/21 03:48:16;;;;;;;29.83;16.85;;;3.90;99.90;;;;;;4942663;28;20016;-74
2021/04/21 03:50:47;;;;;;;24.15;15.98;;;4.00;99.90;;;;;;4943239;28;20492;-74
2021/04/21 03:53:13;;;;;;;27.35;15.98;;;4.00;99.90;;;;;;4945999;28;20024;-74
2021/04/21 03:55:40;;;;;;;28.23;16.75;;;3.90;99.90;;;;;;4945609;28;20421;-73
2021/04/21 03:58:08;;;;;;;28.15;16.85;;;3.90;99.90;;;;;;4942367;28;20030;-74
2021/04/21 04:00:39;;;;;;;26.73;15.95;;;4.00;99.90;;;;;;4944331;28;20384;-74
2021/04/21 04:03:27;;;;;;;27.05;15.25;;;4.00;99.90;;;;;;4944970;28;20490;-73
2021/04/21 04:06:12;;;;;;;26.40;16.27;;;4.00;99.90;;;;;;4932098;29;20067;-73
2021/04/21 04:08:53;;;;;;;24.63;15.63;;;4.10;99.90;;;;;;4937133;29;20042;-73
2021/04/21 04:11:21;;;;;;;;;;;4.00;99.90;;;;;;5000172;28;20027;-73
2021/04/21 04:13:47;;;;;;;21.23;13.30;;;3.90;99.90;;;;;;4949830;28;19906;-73
2021/04/21 04:16:14;;;;;;;23.67;14.13;;;3.90;99.90;;;;;;4997247;28;20078;-73
2021/04/21 04:18:43;;;;;;;26.55;14.88;;;3.90;99.90;;;;;;4997148;28;20397;-73
2021/04/21 04:21:12;;;;;;;27.60;15.37;;;3.80;99.90;;;;;;4938368;28;20114;-73
2021/04/21 04:23:40;;;;;;;32.08;19.15;;;3.60;99.90;;;;;;4942032;28;20514;-73
2021/04/21 04:26:06;;;;;;;27.23;15.52;;;3.60;99.90;;;;;;5027529;28;20081;-73
2021/04/21 04:28:33;;;;;;;28.10;16.95;;;3.50;99.90;;;;;;5016784;28;20027;-73
2021/04/21 04:31:01;;;;;;;27.50;17.88;;;3.40;99.90;;;;;;5005849;28;20039;-73
2021/04/21 04:33:28;;;;;;;31.95;17.27;;;3.40;99.90;;;;;;4938711;29;20381;-73
2021/04/21 04:35:54;;;;;;;38.35;22.30;;;3.40;99.90;;;;;;5004955;28;20046;-74
2021/04/21 04:38:19;;;;;;;42.10;27.92;;;3.30;99.90;;;;;;4939210;28;20382;-73
2021/04/21 04:40:45;;;;;;;35.92;22.83;;;3.30;99.90;;;;;;4942415;28;20028;-73
2021/04/21 04:43:12;;;;;;;30.58;18.05;;;3.40;99.90;;;;;;5032631;28;20027;-73
2021/04/21 04:45:40;;;;;;;32.72;20.20;;;3.50;99.90;;;;;;4965187;28;20093;-73
2021/04/21 04:48:15;;;;;;;37.78;21.17;;;3.50;99.90;;;;;;4950575;28;20031;-73
2021/04/21 04:50:42;;;;;;;33.75;18.02;;;3.60;99.90;;;;;;4950424;28;20121;-73
2021/04/21 04:53:08;;;;;;;34.80;21.40;;;3.70;99.90;;;;;;4950248;28;20555;-72
2021/04/21 04:55:35;;;;;;;31.08;18.27;;;3.80;99.90;;;;;;5024752;28;20043;-73
2021/04/21 04:58:04;;;;;;;37.30;20.98;;;3.80;99.90;;;;;;4950324;28;20031;-73
2021/04/21 05:00:31;;;;;;;34.92;22.25;;;3.80;99.90;;;;;;5016416;28;20027;-73
2021/04/21 05:03:04;;;;;;;34.08;19.17;;;3.80;99.90;;;;;;4950057;28;20038;-73
2021/04/21 05:05:33;;;;;;;43.80;22.48;;;3.90;99.90;;;;;;5016281;28;20558;-73
2021/04/21 05:08:05;;;;;;;39.63;21.98;;;4.10;99.90;;;;;;4934326;28;20047;-73
2021/04/21 05:10:39;;;;;;;39.47;21.92;;;4.20;99.90;;;;;;4937430;28;20118;-73
2021/04/21 05:13:05;;;;;;;50.17;25.65;;;4.30;99.90;;;;;;5016250;28;20396;-74
2021/04/21 05:15:37;;;;;;;41.30;24.88;;;4.40;99.90;;;;;;5032925;28;20489;-73
2021/04/21 05:18:20;;;;;;;32.38;19.77;;;4.60;99.90;;;;;;4938614;28;20028;-73
2021/04/21 05:21:07;;;;;;;40.65;22.05;;;4.80;99.90;;;;;;4996755;28;20020;-72
2021/04/21 05:23:57;;;;;;;37.17;22.35;;;4.90;99.90;;;;;;4930662;29;20505;-73
2021/04/21 05:26:47;;;;;;;47.83;23.77;;;5.00;99.90;;;;;;4940053;28;20035;-72
2021/04/21 05:29:34;;;;;;;71.22;25.08;;;5.00;99.90;;;;;;4930980;28;20085;-73
2021/04/21 05:32:37;;;;;;;58.75;27.58;;;5.10;99.90;;;;;;4930644;28;20019;-72
2021/04/21 05:35:15;;;;;;;82.90;29.08;;;5.00;99.90;;;;;;4996504;28;20474;-73
2021/04/21 05:38:17;;;;;;;48.85;24.50;;;5.20;99.90;;;;;;4930980;28;20024;-72
2021/04/21 05:41:07;;;;;;;60.10;24.73;;;5.40;99.90;;;;;;4930771;29;20042;-73
2021/04/21 05:44:15;;;;;;;78.15;27.42;;;5.60;99.90;;;;;;4996303;28;20071;-73
2021/04/21 05:47:08;;;;;;;62.70;24.50;;;5.70;99.90;;;;;;4939596;28;20043;-73
2021/04/21 05:49:46;;;;;;;96.43;33.63;;;5.80;99.90;;;;;;4935075;29;20058;-73
2021/04/21 05:52:36;;;;;;;54.15;26.35;;;5.70;99.90;;;;;;5015609;28;20636;-73
2021/04/21 05:55:14;;;;;;;69.35;24.65;;;5.80;99.90;;;;;;4949566;28;20023;-73
2021/04/21 05:57:55;;;;;;;55.95;24.92;;;5.90;99.90;;;;;;4952968;28;20024;-73
2021/04/21 06:00:53;;;;;;;;;;;5.70;99.90;;;;;;4949711;28;20027;-73
2021/04/21 06:03:20;;;;;;;45.30;23.85;;;5.70;99.90;;;;;;4972571;28;20006;-73
2021/04/21 06:05:46;;;;;;;55.13;27.20;;;5.60;99.90;;;;;;4956470;28;20043;-73
2021/04/21 06:08:13;;;;;;;53.08;25.75;;;5.70;99.90;;;;;;4972676;28;20628;-73
2021/04/21 06:10:40;;;;;;;44.25;22.85;;;5.70;99.90;;;;;;4972491;28;20564;-73
2021/04/21 06:13:06;;;;;;;46.58;24.67;;;5.70;99.90;;;;;;4956138;28;20578;-73
2021/04/21 06:15:37;;;;;;;41.15;23.13;;;5.80;99.90;;;;;;4972444;28;20067;-73
2021/04/21 06:18:04;;;;;;;;;;;5.90;99.90;;;;;;4956846;28;20565;-74
2021/04/21 06:20:33;;;;;;;35.22;20.90;;;6.00;99.90;;;;;;4956018;28;19914;-73
2021/04/21 06:23:06;;;;;;;36.28;19.73;;;6.10;99.90;;;;;;4955863;28;20151;-73
2021/04/21 06:25:32;;;;;;;32.80;20.42;;;6.10;99.90;;;;;;4972394;28;20035;-73
2021/04/21 06:28:09;;;;;;;32.28;19.08;;;6.30;99.90;;;;;;4972324;28;20042;-73
2021/04/21 06:30:35;;;;;;;30.60;19.75;;;6.30;99.90;;;;;;4972194;28;20161;-73
2021/04/21 06:33:02;;;;;;;33.88;19.48;;;6.50;99.90;;;;;;4971949;28;20118;-74
2021/04/21 06:35:30;;;;;;;29.30;19.38;;;6.60;99.90;;;;;;4972084;28;20090;-73
2021/04/21 06:37:56;;;;;;;34.58;18.40;;;6.60;99.90;;;;;;4968433;28;20666;-74
2021/04/21 06:40:29;;;;;;;33.13;18.50;;;6.70;99.90;;;;;;4933084;28;20040;-73
2021/04/21 06:42:59;;;;;;;33.47;19.55;;;6.80;99.90;;;;;;4998708;28;20115;-73
2021/04/21 06:45:33;;;;;;;31.05;19.45;;;6.90;99.90;;;;;;4933127;28;20031;-73
2021/04/21 06:48:00;;;;;;;28.67;19.17;;;7.00;99.90;;;;;;4933135;28;20102;-73
2021/04/21 06:50:28;;;;;;;33.55;18.17;;;7.10;99.90;;;;;;4932935;28;20031;-73
2021/04/21 06:53:08;;;;;;;31.83;18.25;;;7.30;99.90;;;;;;4998598;28;20128;-74
2021/04/21 06:55:35;;;;;;;24.85;16.27;;;7.40;99.90;;;;;;4932829;28;20020;-73
2021/04/21 06:58:14;;;;;;;32.08;16.48;;;7.50;99.90;;;;;;4932713;28;20078;-73
2021/04/21 07:00:39;;;;;;;27.38;15.88;;;7.70;99.90;;;;;;4933053;28;20078;-73
2021/04/21 07:03:05;;;;;;;24.25;16.15;;;7.80;99.90;;;;;;4998500;28;20036;-73
2021/04/21 07:05:38;;;;;;;26.13;16.42;;;7.90;99.90;;;;;;4932849;28;20032;-74
2021/04/21 07:08:11;;;;;;;24.15;14.40;;;8.00;99.90;;;;;;4997393;28;20031;-73
2021/04/21 07:11:04;;;;;;;24.55;16.75;;;8.20;99.90;;;;;;4932787;28;20043;-73
2021/04/21 07:13:34;;;;;;;28.52;15.30;;;8.30;99.90;;;;;;4934019;28;20040;-72
2021/04/21 07:16:08;;;;;;;21.98;15.05;;;8.40;99.90;;;;;;4932986;28;20496;-72
2021/04/21 07:18:38;;;;;;;28.30;14.43;;;8.50;99.90;;;;;;4932624;28;20477;-72
2021/04/21 07:21:05;;;;;;;22.73;13.75;;;8.60;99.90;;;;;;4932613;28;20042;-72
2021/04/21 07:23:33;;;;;;;24.73;13.80;;;8.70;99.90;;;;;;4998388;28;20418;-72
2021/04/21 07:25:59;;;;;;;22.73;14.43;;;8.80;99.90;;;;;;4932983;28;20103;-72
2021/04/21 07:28:25;;;;;;;28.95;15.82;;;9.00;99.90;;;;;;4932714;28;20110;-72
2021/04/21 07:30:52;;;;;;;24.95;13.93;;;9.10;99.90;;;;;;4932606;28;20436;-72
2021/04/21 07:33:35;;;;;;;23.75;14.93;;;9.30;99.90;;;;;;4932546;28;20382;-73
2021/04/21 07:36:18;;;;;;;24.90;14.75;;;9.40;99.90;;;;;;4932665;28;20023;-73
2021/04/21 07:38:54;;;;;;;25.30;14.77;;;9.60;99.90;;;;;;4932927;28;20130;-72
2021/04/21 07:41:43;;;;;;;29.45;14.90;;;9.60;99.90;;;;;;4932189;28;20046;-72
2021/04/21 07:44:29;;;;;;;38.92;16.30;;;9.70;99.90;;;;;;4932382;28;20046;-72
2021/04/21 07:47:07;;;;;;;26.67;15.35;;;9.80;99.90;;;;;;4932188;28;20097;-70
2021/04/21 07:49:40;;;;;;;24.17;15.50;;;9.90;99.90;;;;;;4933999;29;20440;-72
2021/04/21 07:52:06;;;;;;;22.35;15.07;;;10.10;99.90;;;;;;5006198;28;20028;-72
2021/04/21 07:54:33;;;;;;;20.45;14.60;;;10.10;99.90;;;;;;4951222;28;20058;-73
2021/04/21 07:57:04;;;;;;;23.15;14.05;;;10.30;99.90;;;;;;5017107;28;20031;-72
2021/04/21 07:59:41;;;;;;;25.40;15.05;;;10.30;99.90;;;;;;5017150;28;20039;-73
2021/04/21 08:02:30;;;;;;;22.63;14.50;;;10.40;99.90;;;;;;4950700;28;20105;-72
2021/04/21 08:05:00;;;;;;;26.85;14.55;;;10.60;99.90;;;;;;4951154;28;20390;-72
2021/04/21 08:07:41;;;;;;;25.05;15.90;;;10.80;99.90;;;;;;4950959;28;20027;-71
2021/04/21 08:10:22;;;;;;;21.00;14.38;;;11.00;99.90;;;;;;4950794;28;20459;-72
2021/04/21 08:12:48;;;;;;;28.15;16.50;;;11.10;99.90;;;;;;5016760;28;20023;-71
2021/04/21 08:15:14;;;;;;;24.40;17.25;;;11.20;99.90;;;;;;4950730;28;20108;-71
2021/04/21 08:17:54;;;;;;;28.30;18.02;;;11.30;99.90;;;;;;4949508;28;20069;-71
2021/04/21 08:20:25;;;;;;;31.17;19.80;;;11.40;99.90;;;;;;4950389;28;20031;-71
2021/04/21 08:22:55;;;;;;;24.45;16.10;;;11.60;99.90;;;;;;4950413;28;20106;-71
2021/04/21 08:25:21;;;;;;;28.02;17.15;;;11.70;99.90;;;;;;4950569;28;20078;-71
2021/04/21 08:27:47;;;;;;;31.50;18.88;;;11.70;99.90;;;;;;5016552;28;20521;-71
2021/04/21 08:30:14;;;;;;;28.35;17.58;;;11.90;99.90;;;;;;4950515;28;20081;-71
2021/04/21 08:32:39;;;;;;;24.75;16.35;;;12.10;99.90;;;;;;4950357;28;20517;-71
2021/04/21 08:35:06;;;;;;;30.63;16.33;;;12.20;99.90;;;;;;4950537;28;20031;-71
2021/04/21 08:37:31;;;;;;;23.85;15.80;;;12.40;99.90;;;;;;4950490;28;20019;-71
2021/04/21 08:39:57;;;;;;;23.92;15.05;;;12.40;99.90;;;;;;4950286;28;20552;-71
2021/04/21 08:42:27;;;;;;;23.80;14.95;;;12.80;98.00;;;;;;4950179;28;20062;-71
2021/04/21 08:44:53;;;;;;;23.60;14.20;;;13.00;97.60;;;;;;5016693;28;20029;-71
2021/04/21 08:47:19;;;;;;;22.50;13.55;;;13.00;97.00;;;;;;4950388;28;20456;-71
2021/04/21 08:49:45;;;;;;;25.05;14.65;;;13.10;96.40;;;;;;4950245;28;20106;-71
2021/04/21 08:52:15;;;;;;;23.50;14.15;;;13.10;97.30;;;;;;4949929;28;20023;-71
2021/04/21 08:54:42;;;;;;;;;;;13.10;96.90;;;;;;4950641;29;20085;-71
2021/04/21 08:57:07;;;;;;;22.70;15.10;;;13.00;97.60;;;;;;5016264;28;19934;-71
2021/04/21 08:59:34;;;;;;;18.80;13.25;;;13.00;98.60;;;;;;5016191;28;20485;-71
2021/04/21 09:02:00;;;;;;;22.30;14.73;;;13.20;97.90;;;;;;4949750;29;20432;-71
2021/04/21 09:04:25;;;;;;;23.58;14.50;;;13.40;97.70;;;;;;4950264;28;20428;-71
2021/04/21 09:06:51;;;;;;;20.98;14.27;;;13.60;96.50;;;;;;4950091;28;20103;-71
2021/04/21 09:09:18;;;;;;;24.52;14.20;;;13.70;96.50;;;;;;5015968;28;20019;-71
2021/04/21 09:11:44;;;;;;;21.27;14.60;;;13.70;94.70;;;;;;5016065;28;20390;-71
2021/04/21 09:14:11;;;;;;;24.63;15.18;;;13.70;96.40;;;;;;4950088;28;20023;-71
2021/04/21 09:16:37;;;;;;;19.83;12.10;;;13.70;96.00;;;;;;4949854;28;20024;-71
2021/04/21 09:19:14;;;;;;;20.95;13.45;;;13.80;93.60;;;;;;4949988;28;20035;-71
2021/04/21 09:21:40;;;;;;;23.40;13.48;;;13.90;93.80;;;;;;5015333;28;20031;-71
2021/04/21 09:24:11;;;;;;;19.77;14.00;;;13.80;94.20;;;;;;5016197;28;20462;-71
2021/04/21 09:26:37;;;;;;;18.83;12.63;;;13.80;95.30;;;;;;4950026;28;20386;-71
2021/04/21 09:29:03;;;;;;;20.17;12.10;;;13.90;94.10;;;;;;4950246;28;20028;-71
2021/04/21 09:31:31;;;;;;;19.65;12.07;;;14.00;93.10;;;;;;4951656;28;20035;-71
2021/04/21 09:34:10;;;;;;;19.60;11.32;;;14.20;93.70;;;;;;4953327;28;20543;-71
2021/04/21 09:36:45;;;;;;;19.40;12.38;;;14.30;92.60;;;;;;4953430;28;20062;-71
2021/04/21 09:39:18;;;;;;;17.50;9.85;;;14.30;92.90;;;;;;4953522;28;20226;-71
2021/04/21 09:41:46;;;;;;;17.20;10.20;;;14.40;89.40;;;;;;4952956;29;20034;-71
2021/04/21 09:44:13;;;;;;;15.05;9.32;;;14.40;90.00;;;;;;4953437;28;20047;-71
2021/04/21 09:46:40;;;;;;;13.00;8.30;;;14.50;86.80;;;;;;4953404;29;20015;-71
2021/04/21 09:49:31;;;;;;;16.52;8.70;;;14.60;85.00;;;;;;4953205;28;20023;-71
2021/04/21 09:51:59;;;;;;;14.05;8.70;;;14.60;86.00;;;;;;4952681;29;20019;-71
2021/04/21 09:54:40;;;;;;;13.40;7.63;;;14.70;85.10;;;;;;4953010;28;20490;-71
2021/04/21 09:57:20;;;;;;;14.88;9.27;;;14.80;90.40;;;;;;4953065;29;20496;-72
2021/04/21 10:00:02;;;;;;;19.38;8.90;;;14.90;87.90;;;;;;5019280;28;20030;-78
2021/04/21 10:02:41;;;;;;;15.43;8.05;;;15.00;84.20;;;;;;4952765;28;20042;-74
2021/04/21 10:05:29;;;;;;;15.52;8.80;;;15.00;84.00;;;;;;4952837;28;20111;-76
2021/04/21 10:08:17;;;;;;;17.33;6.32;;;15.00;79.30;;;;;;4952715;28;20019;-72
2021/04/21 10:10:46;;;;;;;14.90;6.43;;;15.10;72.80;;;;;;4952400;28;20031;-71
2021/04/21 10:13:21;;;;;;;12.85;7.10;;;15.00;76.20;;;;;;5018701;28;20020;-72
2021/04/21 10:15:50;;;;;;;14.40;7.88;;;15.10;73.60;;;;;;4952537;29;20019;-71
2021/04/21 10:18:16;;;;;;;16.15;7.15;;;15.10;79.40;;;;;;4952588;28;20019;-72
2021/04/21 10:20:44;;;;;;;11.65;5.68;;;15.30;76.60;;;;;;4952224;28;20042;-72
2021/04/21 10:23:13;;;;;;;12.90;6.53;;;15.30;79.60;;;;;;5018413;28;20023;-71
2021/04/21 10:25:42;;;;;;;11.93;5.63;;;15.50;79.50;;;;;;4952187;28;20102;-72
2021/04/21 10:28:08;;;;;;;17.67;7.57;;;15.60;71.60;;;;;;4952685;28;20038;-72
2021/04/21 10:30:35;;;;;;;17.10;10.70;;;15.80;69.50;;;;;;5018420;28;20398;-72
2021/04/21 10:33:02;;;;;;;50.03;35.85;;;15.70;70.10;;;;;;4952164;29;20106;-72
2021/04/21 10:35:28;;;;;;;18.05;9.88;;;15.90;80.50;;;;;;5018929;28;20020;-72
2021/04/21 10:37:55;;;;;;;12.85;6.45;;;15.90;69.80;;;;;;4952039;28;20136;-72
2021/04/21 10:40:30;;;;;;;14.50;6.78;;;16.10;67.20;;;;;;4950775;29;20020;-73
2021/04/21 10:43:04;;;;;;;13.77;6.57;;;16.10;64.60;;;;;;4998664;28;20036;-75
2021/04/21 10:45:47;;;;;;;16.23;8.25;;;16.00;66.00;;;;;;5008220;28;20024;-74
2021/04/21 10:48:46;;;;;;;14.68;7.60;;;16.10;66.10;;;;;;5018140;28;20036;-74
2021/04/21 10:51:32;;;;;;;15.57;8.32;;;16.10;66.10;;;;;;4952404;28;20027;-74
2021/04/21 10:54:06;;;;;;;13.48;8.32;;;16.10;66.40;;;;;;4952096;28;20046;-74
2021/04/21 10:56:32;;;;;;;16.67;9.32;;;16.20;66.10;;;;;;5023625;28;20054;-75
2021/04/21 10:59:00;;;;;;;17.20;8.65;;;16.00;70.40;;;;;;5018327;28;20031;-74
2021/04/21 11:01:34;;;;;;;16.60;8.77;;;15.80;68.50;;;;;;4944126;28;20110;-75
2021/04/21 11:04:01;;;;;;;14.65;7.90;;;15.80;76.10;;;;;;4946548;29;20092;-74
2021/04/21 11:06:38;;;;;;;12.48;7.40;;;16.00;75.00;;;;;;4940882;28;20031;-74
2021/04/21 11:09:06;;;;;;;14.30;8.10;;;16.10;66.60;;;;;;5017914;28;20052;-75
2021/04/21 11:11:46;;;;;;;15.85;8.32;;;16.00;68.20;;;;;;5016911;28;20027;-74
2021/04/21 11:14:15;;;;;;;13.73;8.18;;;16.10;76.80;;;;;;4938011;29;20081;-74
2021/04/21 11:16:42;;;;;;;13.20;7.95;;;16.30;77.50;;;;;;5018053;28;20478;-75
2021/04/21 11:19:19;;;;;;;14.60;8.27;;;16.40;68.80;;;;;;4950395;29;20020;-75
2021/04/21 11:21:47;;;;;;;15.18;7.60;;;16.60;75.70;;;;;;4951160;28;20078;-75
2021/04/21 11:24:13;;;;;;;12.18;7.15;;;16.80;74.50;;;;;;4949470;29;20035;-75
2021/04/21 11:26:40;;;;;;;16.38;10.73;;;16.80;74.70;;;;;;4946705;28;20512;-73
2021/04/21 11:29:27;;;;;;;20.58;12.32;;;16.80;66.80;;;;;;4947251;28;20081;-73
2021/04/21 11:31:53;;;;;;;15.80;7.40;;;16.90;74.40;;;;;;4950407;28;20035;-73
2021/04/21 11:34:24;;;;;;;13.90;7.72;;;17.10;66.60;;;;;;5016985;28;20019;-73
2021/04/21 11:37:09;;;;;;;16.17;8.13;;;17.20;68.00;;;;;;4949714;28;20032;-73
2021/04/21 11:39:47;;;;;;;18.92;8.43;;;17.40;79.10;;;;;;4949432;28;20031;-74
2021/04/21 11:42:28;;;;;;;15.63;7.07;;;17.60;67.90;;;;;;4962166;28;20031;-73
2021/04/21 11:45:11;;;;;;;;;;;17.50;67.00;;;;;;4962074;28;20106;-73
2021/04/21 11:47:46;;;;;;;13.13;7.32;;;17.50;66.30;;;;;;5016493;28;20384;-72
2021/04/21 11:50:14;;;;;;;9.60;6.10;;;17.30;61.00;;;;;;4948800;28;20020;-73
2021/04/21 11:52:59;;;;;;;10.57;6.25;;;17.20;58.80;;;;;;4952562;28;20029;-72
2021/04/21 11:55:36;;;;;;;10.50;6.25;;;17.10;54.80;;;;;;5012840;28;20031;-73
2021/04/21 11:58:04;;;;;;;11.15;6.47;;;16.90;50.40;;;;;;4970007;28;20087;-73
2021/04/21 12:00:54;;;;;;;12.85;6.65;;;16.90;54.00;;;;;;5023547;28;20033;-73
2021/04/21 12:03:22;;;;;;;10.82;6.20;;;16.80;54.20;;;;;;4944780;28;20495;-73
2021/04/21 12:05:50;;;;;;;14.77;5.50;;;17.00;52.70;;;;;;4935053;28;20123;-77
2021/04/21 12:08:18;;;;;;;12.18;5.70;;;17.20;52.60;;;;;;4949269;28;20081;-73
2021/04/21 12:10:44;;;;;;;9.73;5.30;;;17.60;48.90;;;;;;4950585;28;20111;-73
2021/04/21 12:13:27;;;;;;;9.80;5.65;;;18.00;47.20;;;;;;4950033;28;20616;-72
2021/04/21 12:16:10;;;;;;;11.48;5.68;;;18.90;53.50;;;;;;4966956;28;20481;-72
2021/04/21 12:18:50;;;;;;;9.90;5.05;;;20.00;45.10;;;;;;4941847;28;20034;-72
2021/04/21 12:21:16;;;;;;;9.80;5.20;;;20.80;42.40;;;;;;4939987;28;20038;-73
2021/04/21 12:23:47;;;;;;;10.52;4.93;;;21.20;42.50;;;;;;5031720;28;20031;-73
2021/04/21 12:26:26;;;;;;;12.57;5.93;;;21.80;42.80;;;;;;5015044;28;20118;-73
2021/04/21 12:29:01;;;;;;;10.23;5.47;;;22.10;40.10;;;;;;4936452;28;20535;-73
2021/04/21 12:31:29;;;;;;;8.60;5.25;;;22.90;38.70;;;;;;5019573;28;20027;-73
2021/04/21 12:33:56;;;;;;;7.25;4.70;;;23.20;39.80;;;;;;4950572;28;20106;-74
2021/04/21 12:36:28;;;;;;;11.05;5.70;;;24.00;38.10;;;;;;5017895;28;20061;-73
2021/04/21 12:39:15;;;;;;;10.25;5.25;;;24.30;36.40;;;;;;4958404;28;20023;-73
2021/04/21 12:41:46;;;;;;;11.15;6.13;;;24.50;35.90;;;;;;4932861;28;20102;-73
2021/04/21 12:44:23;;;;;;;12.23;5.93;;;24.50;37.00;;;;;;4948280;29;20047;-73
2021/04/21 12:46:51;;;;;;;12.52;5.75;;;24.90;36.60;;;;;;5023205;28;20446;-74
2021/04/21 12:49:37;;;;;;;13.10;5.90;;;25.00;36.30;;;;;;5034521;28;20366;-73
2021/04/21 12:52:08;;;;;;;9.65;5.75;;;25.30;38.80;;;;;;4952769;28;20027;-74
2021/04/21 12:54:43;;;;;;;9.68;5.43;;;26.20;35.10;;;;;;4952526;28;20158;-74
2021/04/21 12:57:17;;;;;;;10.98;5.28;;;26.10;34.00;;;;;;4952568;28;20526;-73
2021/04/21 12:59:46;;;;;;;12.55;5.40;;;25.70;33.80;;;;;;4949846;28;20106;-73
2021/04/21 13:02:15;;;;;;;11.27;6.35;;;25.90;34.50;;;;;;5015003;28;20042;-73
2021/04/21 13:04:43;;;;;;;12.85;6.25;;;26.00;35.00;;;;;;5016249;28;20042;-73
2021/04/21 13:07:22;;;;;;;9.93;6.30;;;25.90;34.30;;;;;;5015028;28;20031;-73
2021/04/21 13:09:50;;;;;;;11.32;5.93;;;26.30;35.70;;;;;;5033996;28;20507;-74